sensor_id;sensor_type;location;lat;lon;timestamp;pressure;altitude;pressure_sealevel;temperature;humidity
38718;BME280;24468;52.128;9.278;2023-04-22T00:01:00;100114.63;;;13.07;100.00
38718;BME280;24468;52.128;9.278;2023-04-22T00:03:26;100111.25;;;13.04;100.00
38718;BME280;24468;52.128;9.278;2023-04-22T00:05:53;100121.53;;;12.83;100.00
38718;BME280;24468;52.128;9.278;2023-04-22T00:08:19;100116.28;;;12.96;100.00
38718;BME280;24468;52.128;9.278;2023-04-22T00:10:44;100100.75;;;12.83;100.00
38718;BME280;24468;52.128;9.278;2023-04-22T00:13:10;100114.22;;;12.85;100.00
38718;BME280;24468;52.128;9.278;2023-04-22T00:15:36;100108.28;;;13.08;100.00
38718;BME280;24468;52.128;9.278;2023-04-22T00:18:01;100106.19;;;13.28;100.00
38718;BME280;24468;52.128;9.278;2023-04-22T00:20:27;100105.31;;;13.42;99.12
38718;BME280;24468;52.128;9.278;2023-04-22T00:22:53;100095.75;;;13.50;99.74
38718;BME280;24468;52.128;9.278;2023-04-22T00:25:19;100101.06;;;13.66;98.58
38718;BME280;24468;52.128;9.278;2023-04-22T00:27:44;100107.81;;;13.59;99.58
38718;BME280;24468;52.128;9.278;2023-04-22T00:30:10;100108.09;;;13.83;98.20
38718;BME280;24468;52.128;9.278;2023-04-22T00:32:36;100113.41;;;13.99;96.94
38718;BME280;24468;52.128;9.278;2023-04-22T00:35:03;100120.06;;;14.08;96.37
38718;BME280;24468;52.128;9.278;2023-04-22T00:37:28;100115.34;;;14.24;94.62
38718;BME280;24468;52.128;9.278;2023-04-22T00:39:54;100118.53;;;14.31;94.35
38718;BME280;24468;52.128;9.278;2023-04-22T00:42:20;100116.50;;;14.34;94.46
38718;BME280;24468;52.128;9.278;2023-04-22T00:44:46;100114.00;;;14.44;93.99
38718;BME280;24468;52.128;9.278;2023-04-22T00:47:12;100111.00;;;14.49;94.38
38718;BME280;24468;52.128;9.278;2023-04-22T00:49:38;100114.59;;;14.49;94.66
38718;BME280;24468;52.128;9.278;2023-04-22T00:52:04;100114.59;;;14.49;95.01
38718;BME280;24468;52.128;9.278;2023-04-22T00:54:30;100105.19;;;14.55;94.41
38718;BME280;24468;52.128;9.278;2023-04-22T00:56:57;100111.47;;;14.55;94.40
38718;BME280;24468;52.128;9.278;2023-04-22T00:59:23;100100.03;;;14.50;95.09
38718;BME280;24468;52.128;9.278;2023-04-22T01:01:50;100100.94;;;14.36;95.95
38718;BME280;24468;52.128;9.278;2023-04-22T01:04:15;100096.56;;;14.21;97.97
38718;BME280;24468;52.128;9.278;2023-04-22T01:06:42;100092.44;;;14.15;98.23
38718;BME280;24468;52.128;9.278;2023-04-22T01:09:08;100097.72;;;14.17;98.15
38718;BME280;24468;52.128;9.278;2023-04-22T01:11:34;100099.50;;;14.04;98.80
38718;BME280;24468;52.128;9.278;2023-04-22T01:14:02;100099.16;;;13.95;99.04
38718;BME280;24468;52.128;9.278;2023-04-22T01:16:29;100094.81;;;13.78;100.00
38718;BME280;24468;52.128;9.278;2023-04-22T01:18:58;100096.78;;;13.62;100.00
38718;BME280;24468;52.128;9.278;2023-04-22T01:21:25;100098.38;;;13.07;100.00
38718;BME280;24468;52.128;9.278;2023-04-22T01:23:52;100095.59;;;12.95;100.00
38718;BME280;24468;52.128;9.278;2023-04-22T01:26:17;100092.09;;;13.07;100.00
38718;BME280;24468;52.128;9.278;2023-04-22T01:28:43;100097.25;;;13.11;100.00
38718;BME280;24468;52.128;9.278;2023-04-22T01:31:09;100096.59;;;13.22;100.00
38718;BME280;24468;52.128;9.278;2023-04-22T01:33:35;100101.69;;;13.12;100.00
38718;BME280;24468;52.128;9.278;2023-04-22T01:36:01;100106.88;;;12.87;100.00
38718;BME280;24468;52.128;9.278;2023-04-22T01:38:26;100106.63;;;13.06;100.00
38718;BME280;24468;52.128;9.278;2023-04-22T01:40:53;100087.34;;;13.10;100.00
38718;BME280;24468;52.128;9.278;2023-04-22T01:43:19;100089.78;;;13.15;100.00
38718;BME280;24468;52.128;9.278;2023-04-22T01:45:44;100089.22;;;13.24;100.00
38718;BME280;24468;52.128;9.278;2023-04-22T01:48:10;100090.66;;;13.16;100.00
38718;BME280;24468;52.128;9.278;2023-04-22T01:50:36;100092.50;;;13.15;100.00
38718;BME280;24468;52.128;9.278;2023-04-22T01:53:02;100087.56;;;13.07;100.00
38718;BME280;24468;52.128;9.278;2023-04-22T01:55:27;100085.91;;;13.05;100.00
38718;BME280;24468;52.128;9.278;2023-04-22T01:57:53;100086.00;;;12.89;100.00
38718;BME280;24468;52.128;9.278;2023-04-22T02:00:18;100090.34;;;12.61;100.00
38718;BME280;24468;52.128;9.278;2023-04-22T02:02:44;100095.41;;;12.67;100.00
38718;BME280;24468;52.128;9.278;2023-04-22T02:05:09;100092.97;;;12.63;100.00
38718;BME280;24468;52.128;9.278;2023-04-22T02:07:35;100074.81;;;12.65;100.00
38718;BME280;24468;52.128;9.278;2023-04-22T02:10:05;100084.91;;;12.47;100.00
38718;BME280;24468;52.128;9.278;2023-04-22T02:12:31;100085.31;;;12.55;100.00
38718;BME280;24468;52.128;9.278;2023-04-22T02:14:57;100075.53;;;12.53;100.00
38718;BME280;24468;52.128;9.278;2023-04-22T02:17:23;100090.50;;;12.44;100.00
38718;BME280;24468;52.128;9.278;2023-04-22T02:19:48;100082.25;;;11.84;100.00
38718;BME280;24468;52.128;9.278;2023-04-22T02:22:15;100099.38;;;12.00;100.00
38718;BME280;24468;52.128;9.278;2023-04-22T02:24:41;100090.28;;;12.01;100.00
38718;BME280;24468;52.128;9.278;2023-04-22T02:27:07;100090.47;;;11.66;100.00
38718;BME280;24468;52.128;9.278;2023-04-22T02:29:33;100093.94;;;11.84;100.00
38718;BME280;24468;52.128;9.278;2023-04-22T02:31:59;100089.28;;;11.88;100.00
38718;BME280;24468;52.128;9.278;2023-04-22T02:34:25;100093.78;;;11.87;100.00
38718;BME280;24468;52.128;9.278;2023-04-22T02:36:50;100097.47;;;11.86;100.00
38718;BME280;24468;52.128;9.278;2023-04-22T02:39:16;100098.88;;;11.93;100.00
38718;BME280;24468;52.128;9.278;2023-04-22T02:41:41;100089.78;;;11.94;100.00
38718;BME280;24468;52.128;9.278;2023-04-22T02:44:07;100089.44;;;12.00;100.00
38718;BME280;24468;52.128;9.278;2023-04-22T02:46:32;100088.19;;;12.06;100.00
38718;BME280;24468;52.128;9.278;2023-04-22T02:48:58;100085.16;;;12.12;100.00
38718;BME280;24468;52.128;9.278;2023-04-22T02:51:23;100080.88;;;12.24;100.00
38718;BME280;24468;52.128;9.278;2023-04-22T02:53:49;100073.25;;;12.31;100.00
38718;BME280;24468;52.128;9.278;2023-04-22T02:56:14;100074.53;;;12.39;100.00
38718;BME280;24468;52.128;9.278;2023-04-22T02:58:40;100075.31;;;12.41;100.00
38718;BME280;24468;52.128;9.278;2023-04-22T03:01:05;100063.56;;;12.42;100.00
38718;BME280;24468;52.128;9.278;2023-04-22T03:03:31;100075.91;;;12.46;100.00
38718;BME280;24468;52.128;9.278;2023-04-22T03:05:56;100070.00;;;12.10;100.00
38718;BME280;24468;52.128;9.278;2023-04-22T03:08:22;100069.56;;;11.86;100.00
38718;BME280;24468;52.128;9.278;2023-04-22T03:10:47;100073.34;;;11.82;100.00
38718;BME280;24468;52.128;9.278;2023-04-22T03:13:13;100076.34;;;11.77;100.00
38718;BME280;24468;52.128;9.278;2023-04-22T03:15:42;100081.25;;;11.86;100.00
38718;BME280;24468;52.128;9.278;2023-04-22T03:18:07;100081.06;;;11.89;100.00
38718;BME280;24468;52.128;9.278;2023-04-22T03:20:34;100082.47;;;11.96;100.00
38718;BME280;24468;52.128;9.278;2023-04-22T03:23:00;100073.50;;;11.96;100.00
38718;BME280;24468;52.128;9.278;2023-04-22T03:25:26;100064.66;;;12.08;100.00
38718;BME280;24468;52.128;9.278;2023-04-22T03:27:52;100064.84;;;12.05;100.00
38718;BME280;24468;52.128;9.278;2023-04-22T03:30:17;100069.19;;;12.08;100.00
38718;BME280;24468;52.128;9.278;2023-04-22T03:32:43;100061.63;;;11.98;100.00
38718;BME280;24468;52.128;9.278;2023-04-22T03:35:08;100063.25;;;12.01;100.00
38718;BME280;24468;52.128;9.278;2023-04-22T03:37:34;100063.88;;;12.06;100.00
38718;BME280;24468;52.128;9.278;2023-04-22T03:39:59;100066.31;;;12.11;100.00
38718;BME280;24468;52.128;9.278;2023-04-22T03:42:25;100065.16;;;12.15;100.00
38718;BME280;24468;52.128;9.278;2023-04-22T03:44:51;100062.81;;;12.09;100.00
38718;BME280;24468;52.128;9.278;2023-04-22T03:47:17;100067.53;;;12.05;100.00
38718;BME280;24468;52.128;9.278;2023-04-22T03:49:42;100071.38;;;12.01;100.00
38718;BME280;24468;52.128;9.278;2023-04-22T03:52:08;100073.56;;;11.94;100.00
38718;BME280;24468;52.128;9.278;2023-04-22T03:54:33;100080.69;;;11.64;100.00
38718;BME280;24468;52.128;9.278;2023-04-22T03:56:59;100083.63;;;11.59;100.00
38718;BME280;24468;52.128;9.278;2023-04-22T03:59:25;100085.41;;;11.60;100.00
38718;BME280;24468;52.128;9.278;2023-04-22T04:01:51;100083.81;;;11.56;100.00
38718;BME280;24468;52.128;9.278;2023-04-22T04:04:18;100078.34;;;11.57;100.00
38718;BME280;24468;52.128;9.278;2023-04-22T04:06:43;100076.59;;;11.72;100.00
38718;BME280;24468;52.128;9.278;2023-04-22T04:09:09;100074.41;;;11.79;100.00
38718;BME280;24468;52.128;9.278;2023-04-22T04:11:35;100070.88;;;11.94;100.00
38718;BME280;24468;52.128;9.278;2023-04-22T04:14:00;100075.66;;;11.89;100.00
38718;BME280;24468;52.128;9.278;2023-04-22T04:16:27;100065.09;;;12.00;100.00
38718;BME280;24468;52.128;9.278;2023-04-22T04:18:53;100063.44;;;11.98;100.00
38718;BME280;24468;52.128;9.278;2023-04-22T04:21:18;100070.75;;;12.12;100.00
38718;BME280;24468;52.128;9.278;2023-04-22T04:23:46;100068.53;;;11.88;100.00
38718;BME280;24468;52.128;9.278;2023-04-22T04:26:11;100072.28;;;12.01;100.00
38718;BME280;24468;52.128;9.278;2023-04-22T04:28:40;100069.44;;;12.19;100.00
38718;BME280;24468;52.128;9.278;2023-04-22T04:31:05;100066.75;;;12.19;100.00
38718;BME280;24468;52.128;9.278;2023-04-22T04:33:31;100068.13;;;12.26;100.00
38718;BME280;24468;52.128;9.278;2023-04-22T04:35:57;100069.69;;;12.30;100.00
38718;BME280;24468;52.128;9.278;2023-04-22T04:38:24;100060.84;;;12.42;100.00
38718;BME280;24468;52.128;9.278;2023-04-22T04:40:51;100068.19;;;12.40;100.00
38718;BME280;24468;52.128;9.278;2023-04-22T04:43:17;100062.22;;;12.50;100.00
38718;BME280;24468;52.128;9.278;2023-04-22T04:45:43;100064.94;;;12.64;100.00
38718;BME280;24468;52.128;9.278;2023-04-22T04:48:12;100061.91;;;12.40;100.00
38718;BME280;24468;52.128;9.278;2023-04-22T04:50:42;100061.47;;;12.62;100.00
38718;BME280;24468;52.128;9.278;2023-04-22T04:53:09;100056.56;;;12.68;100.00
38718;BME280;24468;52.128;9.278;2023-04-22T04:55:35;100067.31;;;12.70;100.00
38718;BME280;24468;52.128;9.278;2023-04-22T04:58:01;100063.69;;;12.69;100.00
38718;BME280;24468;52.128;9.278;2023-04-22T05:00:26;100058.53;;;12.81;100.00
38718;BME280;24468;52.128;9.278;2023-04-22T05:02:52;100058.75;;;12.92;100.00
38718;BME280;24468;52.128;9.278;2023-04-22T05:05:17;100062.59;;;13.02;100.00
38718;BME280;24468;52.128;9.278;2023-04-22T05:07:43;100061.25;;;12.95;100.00
38718;BME280;24468;52.128;9.278;2023-04-22T05:10:09;100061.72;;;13.02;100.00
38718;BME280;24468;52.128;9.278;2023-04-22T05:12:35;100063.50;;;13.17;100.00
38718;BME280;24468;52.128;9.278;2023-04-22T05:15:01;100059.16;;;13.29;100.00
38718;BME280;24468;52.128;9.278;2023-04-22T05:17:27;100064.75;;;13.40;100.00
38718;BME280;24468;52.128;9.278;2023-04-22T05:19:52;100059.72;;;13.48;100.00
38718;BME280;24468;52.128;9.278;2023-04-22T05:22:18;100065.81;;;13.66;100.00
38718;BME280;24468;52.128;9.278;2023-04-22T05:24:43;100062.78;;;13.71;100.00
38718;BME280;24468;52.128;9.278;2023-04-22T05:27:09;100059.50;;;13.80;100.00
38718;BME280;24468;52.128;9.278;2023-04-22T05:29:35;100053.25;;;13.92;100.00
38718;BME280;24468;52.128;9.278;2023-04-22T05:32:01;100054.75;;;14.11;100.00
38718;BME280;24468;52.128;9.278;2023-04-22T05:34:26;100063.53;;;14.41;100.00
38718;BME280;24468;52.128;9.278;2023-04-22T05:36:52;100063.00;;;14.49;100.00
38718;BME280;24468;52.128;9.278;2023-04-22T05:39:18;100057.84;;;14.59;100.00
38718;BME280;24468;52.128;9.278;2023-04-22T05:41:43;100079.41;;;14.87;100.00
38718;BME280;24468;52.128;9.278;2023-04-22T05:44:09;100068.97;;;14.94;100.00
38718;BME280;24468;52.128;9.278;2023-04-22T05:46:35;100077.03;;;14.96;100.00
38718;BME280;24468;52.128;9.278;2023-04-22T05:49:00;100076.56;;;14.76;100.00
38718;BME280;24468;52.128;9.278;2023-04-22T05:51:26;100068.75;;;14.84;100.00
38718;BME280;24468;52.128;9.278;2023-04-22T05:53:51;100066.59;;;14.89;100.00
38718;BME280;24468;52.128;9.278;2023-04-22T05:56:17;100070.25;;;14.88;100.00
38718;BME280;24468;52.128;9.278;2023-04-22T05:58:43;100069.53;;;14.86;100.00
38718;BME280;24468;52.128;9.278;2023-04-22T06:01:09;100063.88;;;14.89;100.00
38718;BME280;24468;52.128;9.278;2023-04-22T06:03:34;100067.25;;;14.93;100.00
38718;BME280;24468;52.128;9.278;2023-04-22T06:06:00;100055.81;;;15.13;100.00
38718;BME280;24468;52.128;9.278;2023-04-22T06:08:26;100051.16;;;15.16;100.00
38718;BME280;24468;52.128;9.278;2023-04-22T06:10:51;100058.03;;;15.08;100.00
38718;BME280;24468;52.128;9.278;2023-04-22T06:13:17;100058.56;;;15.01;100.00
38718;BME280;24468;52.128;9.278;2023-04-22T06:15:42;100048.56;;;15.01;100.00
38718;BME280;24468;52.128;9.278;2023-04-22T06:18:08;100042.69;;;15.20;100.00
38718;BME280;24468;52.128;9.278;2023-04-22T06:20:34;100038.97;;;15.21;100.00
38718;BME280;24468;52.128;9.278;2023-04-22T06:23:00;100045.59;;;15.30;100.00
38718;BME280;24468;52.128;9.278;2023-04-22T06:25:26;100050.47;;;15.38;100.00
38718;BME280;24468;52.128;9.278;2023-04-22T06:27:52;100047.94;;;15.60;100.00
38718;BME280;24468;52.128;9.278;2023-04-22T06:30:17;100047.06;;;15.72;100.00
38718;BME280;24468;52.128;9.278;2023-04-22T06:32:43;100053.34;;;15.86;100.00
38718;BME280;24468;52.128;9.278;2023-04-22T06:35:08;100042.00;;;15.92;100.00
38718;BME280;24468;52.128;9.278;2023-04-22T06:37:34;100047.50;;;16.03;100.00
38718;BME280;24468;52.128;9.278;2023-04-22T06:40:00;100036.16;;;16.09;100.00
38718;BME280;24468;52.128;9.278;2023-04-22T06:42:25;100025.78;;;16.14;100.00
38718;BME280;24468;52.128;9.278;2023-04-22T06:44:51;100035.44;;;16.42;99.65
38718;BME280;24468;52.128;9.278;2023-04-22T06:47:16;100030.75;;;16.44;100.00
38718;BME280;24468;52.128;9.278;2023-04-22T06:49:42;100038.91;;;16.44;100.00
38718;BME280;24468;52.128;9.278;2023-04-22T06:52:09;100030.59;;;16.35;100.00
38718;BME280;24468;52.128;9.278;2023-04-22T06:54:35;100030.22;;;16.39;100.00
38718;BME280;24468;52.128;9.278;2023-04-22T06:57:01;100029.72;;;16.34;100.00
38718;BME280;24468;52.128;9.278;2023-04-22T06:59:26;100031.78;;;16.55;100.00
38718;BME280;24468;52.128;9.278;2023-04-22T07:01:52;100019.47;;;16.73;100.00
38718;BME280;24468;52.128;9.278;2023-04-22T07:04:17;100027.13;;;17.15;98.25
38718;BME280;24468;52.128;9.278;2023-04-22T07:06:43;100025.25;;;17.26;97.68
38718;BME280;24468;52.128;9.278;2023-04-22T07:09:08;100018.66;;;17.51;94.26
38718;BME280;24468;52.128;9.278;2023-04-22T07:11:34;100017.31;;;17.57;90.33
38718;BME280;24468;52.128;9.278;2023-04-22T07:13:59;100019.50;;;17.97;87.87
38718;BME280;24468;52.128;9.278;2023-04-22T07:16:25;100020.72;;;18.04;87.39
38718;BME280;24468;52.128;9.278;2023-04-22T07:18:52;100018.84;;;18.37;87.23
38718;BME280;24468;52.128;9.278;2023-04-22T07:21:17;100013.59;;;18.45;86.84
38718;BME280;24468;52.128;9.278;2023-04-22T07:23:43;100010.03;;;18.86;82.55
38718;BME280;24468;52.128;9.278;2023-04-22T07:26:09;100015.81;;;19.14;79.34
38718;BME280;24468;52.128;9.278;2023-04-22T07:28:34;100015.22;;;19.10;78.08
38718;BME280;24468;52.128;9.278;2023-04-22T07:31:01;100016.50;;;19.06;79.52
38718;BME280;24468;52.128;9.278;2023-04-22T07:33:27;100017.09;;;19.10;79.79
38718;BME280;24468;52.128;9.278;2023-04-22T07:35:53;100018.91;;;19.30;77.66
38718;BME280;24468;52.128;9.278;2023-04-22T07:38:19;100009.66;;;19.22;76.89
38718;BME280;24468;52.128;9.278;2023-04-22T07:40:44;100012.19;;;19.44;76.02
38718;BME280;24468;52.128;9.278;2023-04-22T07:43:10;100006.94;;;19.62;75.31
38718;BME280;24468;52.128;9.278;2023-04-22T07:45:35;100019.97;;;19.70;76.13
38718;BME280;24468;52.128;9.278;2023-04-22T07:48:01;100013.03;;;19.66;75.50
38718;BME280;24468;52.128;9.278;2023-04-22T07:50:27;100021.41;;;19.74;76.14
38718;BME280;24468;52.128;9.278;2023-04-22T07:52:52;100013.50;;;19.71;75.63
38718;BME280;24468;52.128;9.278;2023-04-22T07:55:18;100015.53;;;19.79;74.07
38718;BME280;24468;52.128;9.278;2023-04-22T07:57:43;100016.25;;;19.81;71.83
38718;BME280;24468;52.128;9.278;2023-04-22T08:00:10;100008.41;;;19.66;73.59
38718;BME280;24468;52.128;9.278;2023-04-22T08:02:35;100008.22;;;19.89;73.80
38718;BME280;24468;52.128;9.278;2023-04-22T08:05:01;100003.19;;;20.04;71.35
38718;BME280;24468;52.128;9.278;2023-04-22T08:07:27;100003.16;;;19.13;75.42
38718;BME280;24468;52.128;9.278;2023-04-22T08:09:52;100006.47;;;19.17;78.98
38718;BME280;24468;52.128;9.278;2023-04-22T08:12:20;99997.72;;;19.53;78.84
38718;BME280;24468;52.128;9.278;2023-04-22T08:14:45;100003.19;;;19.53;79.23
38718;BME280;24468;52.128;9.278;2023-04-22T08:17:11;99991.22;;;19.54;78.28
38718;BME280;24468;52.128;9.278;2023-04-22T08:19:36;99988.00;;;19.70;76.14
38718;BME280;24468;52.128;9.278;2023-04-22T08:22:02;99985.31;;;19.99;74.32
38718;BME280;24468;52.128;9.278;2023-04-22T08:24:27;99990.66;;;20.30;70.97
38718;BME280;24468;52.128;9.278;2023-04-22T08:26:53;99982.44;;;20.30;69.84
38718;BME280;24468;52.128;9.278;2023-04-22T08:29:18;99984.03;;;20.42;67.75
38718;BME280;24468;52.128;9.278;2023-04-22T08:31:44;99988.50;;;20.34;66.66
38718;BME280;24468;52.128;9.278;2023-04-22T08:34:10;99981.00;;;20.65;68.40
38718;BME280;24468;52.128;9.278;2023-04-22T08:36:35;99987.06;;;20.69;69.78
38718;BME280;24468;52.128;9.278;2023-04-22T08:39:01;99981.16;;;20.63;69.86
38718;BME280;24468;52.128;9.278;2023-04-22T08:41:26;99980.84;;;20.47;71.67
38718;BME280;24468;52.128;9.278;2023-04-22T08:43:52;99980.16;;;20.55;69.89
38718;BME280;24468;52.128;9.278;2023-04-22T08:46:18;99974.53;;;20.66;65.59
38718;BME280;24468;52.128;9.278;2023-04-22T08:48:50;99966.78;;;20.99;65.90
38718;BME280;24468;52.128;9.278;2023-04-22T08:51:16;99967.84;;;20.88;67.91
38718;BME280;24468;52.128;9.278;2023-04-22T08:53:43;99975.16;;;21.07;64.15
38718;BME280;24468;52.128;9.278;2023-04-22T08:56:11;99966.81;;;20.89;64.50
38718;BME280;24468;52.128;9.278;2023-04-22T08:58:41;99965.22;;;20.96;63.42
38718;BME280;24468;52.128;9.278;2023-04-22T09:01:08;99964.09;;;21.26;64.09
38718;BME280;24468;52.128;9.278;2023-04-22T09:03:38;99961.91;;;20.93;64.46
38718;BME280;24468;52.128;9.278;2023-04-22T09:06:05;99955.09;;;21.06;64.32
38718;BME280;24468;52.128;9.278;2023-04-22T09:08:32;99956.16;;;21.23;63.66
38718;BME280;24468;52.128;9.278;2023-04-22T09:10:58;99958.09;;;21.50;61.30
38718;BME280;24468;52.128;9.278;2023-04-22T09:13:25;99959.88;;;21.32;59.80
38718;BME280;24468;52.128;9.278;2023-04-22T09:15:51;99952.66;;;21.41;61.04
38718;BME280;24468;52.128;9.278;2023-04-22T09:18:18;99953.81;;;21.38;62.23
38718;BME280;24468;52.128;9.278;2023-04-22T09:20:48;99955.44;;;21.59;60.72
38718;BME280;24468;52.128;9.278;2023-04-22T09:23:18;99943.75;;;21.74;60.26
38718;BME280;24468;52.128;9.278;2023-04-22T09:25:44;99942.91;;;21.74;59.36
38718;BME280;24468;52.128;9.278;2023-04-22T09:28:15;99950.38;;;21.82;58.49
38718;BME280;24468;52.128;9.278;2023-04-22T09:30:44;99953.53;;;22.05;57.92
38718;BME280;24468;52.128;9.278;2023-04-22T09:33:11;99943.19;;;22.16;56.51
38718;BME280;24468;52.128;9.278;2023-04-22T09:35:42;99942.47;;;22.32;55.66
38718;BME280;24468;52.128;9.278;2023-04-22T09:38:10;99945.72;;;22.28;54.64
38718;BME280;24468;52.128;9.278;2023-04-22T09:40:40;99936.31;;;22.30;55.07
38718;BME280;24468;52.128;9.278;2023-04-22T09:43:07;99934.69;;;22.46;54.42
38718;BME280;24468;52.128;9.278;2023-04-22T09:45:40;99927.06;;;22.57;53.52
38718;BME280;24468;52.128;9.278;2023-04-22T09:48:14;99937.34;;;22.99;54.53
38718;BME280;24468;52.128;9.278;2023-04-22T09:50:50;99931.59;;;23.19;51.83
38718;BME280;24468;52.128;9.278;2023-04-22T09:53:18;99921.34;;;23.29;52.50
38718;BME280;24468;52.128;9.278;2023-04-22T09:55:53;99925.34;;;23.43;51.19
38718;BME280;24468;52.128;9.278;2023-04-22T09:58:20;99914.78;;;23.30;52.24
38718;BME280;24468;52.128;9.278;2023-04-22T10:00:53;99915.38;;;23.07;53.66
38718;BME280;24468;52.128;9.278;2023-04-22T10:03:20;99909.38;;;23.55;53.66
38718;BME280;24468;52.128;9.278;2023-04-22T10:05:45;99906.38;;;23.32;50.92
38718;BME280;24468;52.128;9.278;2023-04-22T10:08:13;99900.44;;;23.61;50.72
38718;BME280;24468;52.128;9.278;2023-04-22T10:10:39;99901.91;;;23.73;50.24
38718;BME280;24468;52.128;9.278;2023-04-22T10:13:06;99897.34;;;23.64;50.68
38718;BME280;24468;52.128;9.278;2023-04-22T10:15:36;99894.09;;;23.68;50.08
38718;BME280;24468;52.128;9.278;2023-04-22T10:18:05;99892.28;;;24.18;48.96
38718;BME280;24468;52.128;9.278;2023-04-22T10:20:36;99891.44;;;24.01;49.11
38718;BME280;24468;52.128;9.278;2023-04-22T10:23:04;99890.03;;;24.30;48.83
38718;BME280;24468;52.128;9.278;2023-04-22T10:25:30;99887.50;;;24.45;49.53
38718;BME280;24468;52.128;9.278;2023-04-22T10:28:05;99879.00;;;24.30;47.87
38718;BME280;24468;52.128;9.278;2023-04-22T10:30:35;99892.28;;;24.18;48.86
38718;BME280;24468;52.128;9.278;2023-04-22T10:36:05;99877.78;;;24.73;46.50
38718;BME280;24468;52.128;9.278;2023-04-22T10:38:37;99870.91;;;24.77;47.65
38718;BME280;24468;52.128;9.278;2023-04-22T10:41:04;99875.25;;;24.63;47.18
38718;BME280;24468;52.128;9.278;2023-04-22T10:49:13;99865.06;;;24.39;46.48
38718;BME280;24468;52.128;9.278;2023-04-22T10:51:57;99864.22;;;24.63;46.07
38718;BME280;24468;52.128;9.278;2023-04-22T10:57:18;99853.75;;;24.90;44.82
38718;BME280;24468;52.128;9.278;2023-04-22T10:59:54;99849.69;;;25.25;45.16
38718;BME280;24468;52.128;9.278;2023-04-22T11:02:22;99847.53;;;25.44;44.73
38718;BME280;24468;52.128;9.278;2023-04-22T11:04:48;99838.06;;;25.38;43.93
38718;BME280;24468;52.128;9.278;2023-04-22T11:09:48;99827.25;;;25.28;42.69
38718;BME280;24468;52.128;9.278;2023-04-22T11:15:11;99824.28;;;24.99;43.43
38718;BME280;24468;52.128;9.278;2023-04-22T11:17:38;99825.25;;;25.06;43.22
38718;BME280;24468;52.128;9.278;2023-04-22T11:20:06;99825.69;;;24.87;42.19
38718;BME280;24468;52.128;9.278;2023-04-22T11:22:40;99822.31;;;25.07;42.50
38718;BME280;24468;52.128;9.278;2023-04-22T11:25:06;99825.97;;;25.00;42.19
38718;BME280;24468;52.128;9.278;2023-04-22T11:27:34;99820.06;;;24.63;41.93
38718;BME280;24468;52.128;9.278;2023-04-22T11:30:09;99816.59;;;25.17;42.66
38718;BME280;24468;52.128;9.278;2023-04-22T11:32:40;99818.06;;;25.36;42.45
38718;BME280;24468;52.128;9.278;2023-04-22T11:35:08;99816.47;;;25.02;42.34
38718;BME280;24468;52.128;9.278;2023-04-22T11:37:59;99821.03;;;25.58;41.48
38718;BME280;24468;52.128;9.278;2023-04-22T11:40:29;99821.19;;;24.94;41.87
38718;BME280;24468;52.128;9.278;2023-04-22T11:42:56;99813.84;;;25.09;41.72
38718;BME280;24468;52.128;9.278;2023-04-22T11:45:22;99808.28;;;25.25;41.28
38718;BME280;24468;52.128;9.278;2023-04-22T11:47:50;99815.78;;;25.00;41.25
38718;BME280;24468;52.128;9.278;2023-04-22T11:50:20;99813.84;;;25.17;41.64
38718;BME280;24468;52.128;9.278;2023-04-22T11:55:32;99808.38;;;25.01;42.36
38718;BME280;24468;52.128;9.278;2023-04-22T11:58:28;99806.84;;;25.38;42.84
38718;BME280;24468;52.128;9.278;2023-04-22T12:00:54;99809.69;;;25.21;42.64
38718;BME280;24468;52.128;9.278;2023-04-22T12:03:24;99798.59;;;24.90;42.75
38718;BME280;24468;52.128;9.278;2023-04-22T12:06:09;99801.28;;;24.67;42.81
38718;BME280;24468;52.128;9.278;2023-04-22T12:08:38;99798.44;;;24.83;41.93
38718;BME280;24468;52.128;9.278;2023-04-22T12:11:10;99800.44;;;24.98;42.42
38718;BME280;24468;52.128;9.278;2023-04-22T12:16:14;99792.13;;;24.67;42.18
38718;BME280;24468;52.128;9.278;2023-04-22T12:18:52;99783.06;;;25.28;42.27
38718;BME280;24468;52.128;9.278;2023-04-22T12:21:23;99779.78;;;26.02;42.39
38718;BME280;24468;52.128;9.278;2023-04-22T12:23:57;99777.03;;;25.79;42.00
38718;BME280;24468;52.128;9.278;2023-04-22T12:26:24;99778.25;;;26.00;41.19
38718;BME280;24468;52.128;9.278;2023-04-22T12:28:51;99768.56;;;25.81;41.34
38718;BME280;24468;52.128;9.278;2023-04-22T12:31:17;99770.22;;;25.44;41.83
38718;BME280;24468;52.128;9.278;2023-04-22T12:33:44;99768.50;;;25.03;42.31
38718;BME280;24468;52.128;9.278;2023-04-22T12:36:11;99780.56;;;25.42;41.62
38718;BME280;24468;52.128;9.278;2023-04-22T12:38:37;99773.53;;;25.00;41.42
38718;BME280;24468;52.128;9.278;2023-04-22T12:41:05;99760.66;;;25.32;40.94
38718;BME280;24468;52.128;9.278;2023-04-22T12:43:31;99769.47;;;24.88;42.45
38718;BME280;24468;52.128;9.278;2023-04-22T12:46:01;99755.25;;;25.84;41.94
38718;BME280;24468;52.128;9.278;2023-04-22T12:48:26;99766.53;;;25.74;42.09
38718;BME280;24468;52.128;9.278;2023-04-22T12:50:52;99762.91;;;25.51;41.61
38718;BME280;24468;52.128;9.278;2023-04-22T12:53:19;99749.66;;;25.92;40.92
38718;BME280;24468;52.128;9.278;2023-04-22T12:55:45;99756.44;;;26.05;40.43
38718;BME280;24468;52.128;9.278;2023-04-22T12:58:12;99758.41;;;26.34;40.66
38718;BME280;24468;52.128;9.278;2023-04-22T13:00:38;99751.34;;;26.46;40.97
38718;BME280;24468;52.128;9.278;2023-04-22T13:03:04;99752.66;;;26.21;40.38
38718;BME280;24468;52.128;9.278;2023-04-22T13:05:29;99742.19;;;26.46;40.57
38718;BME280;24468;52.128;9.278;2023-04-22T13:07:55;99749.78;;;27.03;40.13